Time;durP1;ratioP1;P1;durP2;ratioP2;P2;SDS_P1;SDS_P2;PMS_P1;PMS_P2;Temp;Humidity;BMP_temperature;BMP_pressure;BME280_temperature;BME280_humidity;BME280_pressure;Samples;Min_cycle;Max_cycle;Signal;HPM_P1;HPM_P2
2021/05/08 00:00:09;;;;;;;5.27;3.23;;;;;;;2.96;87.68;100118.42;1649270;86;25408;-77
2021/05/08 00:02:34;;;;;;;2.85;2.58;;;;;;;3.03;87.62;100126.51;1650067;86;25830;-77
2021/05/08 00:05:00;;;;;;;5.40;3.20;;;;;;;3.09;88.04;100124.24;1648948;86;31443;-77
2021/05/08 00:07:26;;;;;;;4.53;3.27;;;;;;;3.15;87.60;100129.86;1646820;86;28255;-77
2021/05/08 00:09:52;;;;;;;4.97;3.17;;;;;;;3.17;87.81;100123.64;1646925;86;25393;-77
2021/05/08 00:12:17;;;;;;;4.40;3.20;;;;;;;3.20;87.87;100123.39;1647134;86;25452;-77
2021/05/08 00:14:43;;;;;;;5.77;2.97;;;;;;;3.22;87.76;100123.25;1647707;86;26031;-77
2021/05/08 00:17:09;;;;;;;4.10;3.40;;;;;;;3.24;87.68;100129.11;1645170;86;25341;-77
2021/05/08 00:19:35;;;;;;;5.27;3.30;;;;;;;3.28;87.64;100134.39;1636939;86;34942;-77
2021/05/08 00:22:00;;;;;;;4.30;3.37;;;;;;;3.30;87.71;100128.61;1645330;86;25907;-77
2021/05/08 00:24:26;;;;;;;4.03;3.33;;;;;;;3.32;87.78;100134.00;1648008;86;25864;-77
2021/05/08 00:26:52;;;;;;;7.10;3.80;;;;;;;3.37;87.65;100132.35;1646594;86;25855;-77
2021/05/08 00:29:18;;;;;;;4.27;3.43;;;;;;;3.43;87.58;100131.03;1646025;86;27439;-77
2021/05/08 00:31:43;;;;;;;4.33;3.60;;;;;;;3.46;87.71;100130.78;1644047;86;35582;-77
2021/05/08 00:34:09;;;;;;;5.97;4.10;;;;;;;3.46;87.55;100134.66;1646383;86;25990;-77
2021/05/08 00:36:35;;;;;;;6.20;4.07;;;;;;;3.49;87.68;100139.56;1644971;86;25878;-77
2021/05/08 00:39:04;;;;;;;5.63;3.70;;;;;;;3.52;87.63;100139.34;1644975;86;26221;-76
2021/05/08 00:41:30;;;;;;;8.43;4.90;;;;;;;3.54;87.56;100139.54;1645441;86;25313;-77
2021/05/08 00:43:57;;;;;;;6.35;3.90;;;;;;;3.62;87.65;100140.20;1646290;86;25794;-77
2021/05/08 00:46:25;;;;;;;6.17;4.50;;;;;;;3.62;87.59;100141.50;1636717;86;25425;-77
2021/05/08 00:48:54;;;;;;;4.40;3.67;;;;;;;3.64;87.68;100142.20;1647532;86;25419;-77
2021/05/08 00:51:21;;;;;;;5.22;3.40;;;;;;;3.65;87.70;100150.30;1644622;86;25713;-77
2021/05/08 00:53:46;;;;;;;6.25;3.90;;;;;;;3.67;87.80;100151.47;1646691;86;25797;-77
2021/05/08 00:56:13;;;;;;;6.97;4.17;;;;;;;3.68;87.66;100149.22;1637361;86;25772;-77
2021/05/08 00:58:40;;;;;;;8.13;4.22;;;;;;;3.72;87.67;100151.92;1647703;86;25344;-77
2021/05/08 01:01:06;;;;;;;6.33;4.35;;;;;;;3.75;87.62;100156.83;1645744;86;25694;-77
2021/05/08 01:03:33;;;;;;;6.23;4.70;;;;;;;3.78;87.63;100161.27;1634311;85;25831;-77
2021/05/08 01:06:00;;;;;;;6.67;4.40;;;;;;;3.82;87.65;100162.30;1620204;86;26015;-77
2021/05/08 01:08:26;;;;;;;7.00;4.92;;;;;;;3.86;87.79;100166.30;1647899;86;25848;-77
2021/05/08 01:10:53;;;;;;;6.78;4.95;;;;;;;3.87;87.65;100167.44;1646576;86;25780;-77
2021/05/08 01:13:20;;;;;;;7.80;5.37;;;;;;;3.88;87.73;100167.80;1628296;86;25878;-76
2021/05/08 01:15:46;;;;;;;9.33;5.80;;;;;;;3.89;87.65;100173.31;1646969;86;25728;-76
2021/05/08 01:18:13;;;;;;;9.45;6.30;;;;;;;3.91;87.97;100171.91;1623638;86;25902;-77
2021/05/08 01:20:42;;;;;;;8.28;6.35;;;;;;;3.94;87.87;100176.82;1646625;86;26452;-76
2021/05/08 01:23:07;;;;;;;7.37;5.72;;;;;;;3.95;87.81;100174.57;1645851;86;26467;-77
2021/05/08 01:25:33;;;;;;;9.78;7.22;;;;;;;3.97;87.89;100176.08;1645571;86;25353;-77
2021/05/08 01:28:01;;;;;;;16.40;7.53;;;;;;;4.00;87.88;100175.02;1649656;86;25836;-77
2021/05/08 01:30:34;;;;;;;10.32;7.25;;;;;;;4.05;87.91;100183.21;1648211;86;25781;-77
2021/05/08 01:33:04;;;;;;;9.20;7.05;;;;;;;4.07;87.97;100186.98;1648557;86;25277;-77
2021/05/08 01:35:31;;;;;;;13.25;8.25;;;;;;;4.11;87.98;100176.23;1645798;86;25536;-76
2021/05/08 01:37:58;;;;;;;9.95;7.50;;;;;;;4.18;88.06;100180.44;1646332;86;25819;-77
2021/05/08 01:40:32;;;;;;;10.70;8.10;;;;;;;4.26;88.23;100179.32;1647918;86;25691;-77
2021/05/08 01:42:59;;;;;;;9.73;8.08;;;;;;;4.30;88.16;100178.09;1645103;86;26732;-77
2021/05/08 01:45:27;;;;;;;12.07;8.08;;;;;;;4.34;88.19;100189.03;1647250;86;25339;-76
2021/05/08 01:47:53;;;;;;;11.20;8.70;;;;;;;4.36;88.41;100184.52;1645669;86;25906;-77
2021/05/08 01:50:23;;;;;;;12.43;9.63;;;;;;;4.39;88.43;100186.84;1637595;86;26633;-77
2021/05/08 01:52:50;;;;;;;;;;;;;;;4.43;88.46;100190.83;1649014;86;25763;-77
2021/05/08 01:55:23;;;;;;;12.00;9.60;;;;;;;4.45;88.78;100193.63;1646011;86;25839;-77
2021/05/08 01:57:53;;;;;;;15.08;10.40;;;;;;;4.47;88.78;100194.78;1645356;86;25768;-77
2021/05/08 02:00:27;;;;;;;13.83;9.73;;;;;;;4.52;88.79;100196.98;1585672;88;26179;-77
2021/05/08 02:02:55;;;;;;;14.87;11.12;;;;;;;4.55;89.06;100191.55;1645864;86;25309;-77
2021/05/08 02:05:29;;;;;;;12.68;10.15;;;;;;;4.56;89.08;100202.27;1644920;86;26880;-77
2021/05/08 02:07:59;;;;;;;13.70;11.63;;;;;;;4.59;89.43;100206.70;1646461;86;25321;-77
2021/05/08 02:10:24;;;;;;;18.45;13.38;;;;;;;4.63;89.29;100208.54;1647864;86;25892;-76
2021/05/08 02:12:50;;;;;;;16.57;12.03;;;;;;;4.66;89.47;100209.13;1636799;86;25920;-76
2021/05/08 02:15:18;;;;;;;13.70;11.63;;;;;;;4.68;89.43;100209.78;1636289;86;25387;-77
2021/05/08 02:17:45;;;;;;;14.78;12.35;;;;;;;4.73;89.64;100211.99;1657705;85;27272;-76
2021/05/08 02:20:16;;;;;;;14.47;12.10;;;;;;;4.76;89.40;100214.80;1658019;85;25355;-76
2021/05/08 02:22:43;;;;;;;17.65;12.28;;;;;;;4.78;89.78;100216.79;1656357;85;25756;-77
2021/05/08 02:25:12;;;;;;;14.95;11.60;;;;;;;4.80;89.49;100218.30;1658120;85;25369;-76
2021/05/08 02:27:39;;;;;;;17.77;12.90;;;;;;;4.84;89.76;100221.44;1657269;85;25372;-77
2021/05/08 02:30:09;;;;;;;14.73;13.13;;;;;;;4.87;89.47;100227.16;1655578;85;25859;-77
2021/05/08 02:32:36;;;;;;;15.10;12.53;;;;;;;4.90;89.42;100225.59;1659825;85;25857;-77
2021/05/08 02:35:04;;;;;;;19.73;13.93;;;;;;;4.93;89.56;100228.88;1656162;85;25808;-76
2021/05/08 02:37:30;;;;;;;16.65;11.65;;;;;;;4.97;89.34;100236.75;1656318;85;25380;-77
2021/05/08 02:39:56;;;;;;;17.17;12.90;;;;;;;4.98;89.48;100238.38;1658503;85;25752;-77
2021/05/08 02:42:22;;;;;;;14.53;10.47;;;;;;;4.96;89.48;100235.91;1636665;85;26927;-77
2021/05/08 02:44:48;;;;;;;12.82;10.88;;;;;;;4.98;89.94;100237.89;1657829;85;25849;-77
2021/05/08 02:47:19;;;;;;;13.83;11.17;;;;;;;4.99;89.51;100249.91;1657653;85;25391;-77
2021/05/08 02:49:50;;;;;;;12.63;10.25;;;;;;;4.99;89.46;100243.44;1657801;85;25427;-77
2021/05/08 02:52:19;;;;;;;14.38;9.33;;;;;;;5.01;89.44;100251.06;1657458;85;25333;-77
2021/05/08 02:54:46;;;;;;;12.15;9.55;;;;;;;5.01;89.40;100254.95;1659368;85;26430;-77
2021/05/08 02:57:12;;;;;;;13.38;8.55;;;;;;;5.01;89.66;100262.72;1656263;85;25831;-77
2021/05/08 02:59:38;;;;;;;12.17;8.93;;;;;;;5.02;89.43;100263.05;1657687;85;25432;-77
2021/05/08 03:02:05;;;;;;;11.93;9.70;;;;;;;5.01;89.46;100271.78;1654976;85;25856;-77
2021/05/08 03:04:33;;;;;;;12.82;8.70;;;;;;;4.99;89.32;100268.05;1656631;85;25936;-77
2021/05/08 03:07:03;;;;;;;10.00;8.18;;;;;;;5.01;89.22;100265.30;1657014;85;25886;-77
2021/05/08 03:09:30;;;;;;;10.58;7.40;;;;;;;5.01;89.57;100280.84;1658282;85;26744;-77
2021/05/08 03:11:57;;;;;;;10.82;7.10;;;;;;;4.99;89.27;100279.70;1658307;85;25432;-77
2021/05/08 03:14:24;;;;;;;8.10;6.90;;;;;;;4.98;89.48;100285.81;1635718;86;25347;-76
2021/05/08 03:16:50;;;;;;;10.63;6.97;;;;;;;4.97;89.64;100289.84;1600406;88;25980;-77
2021/05/08 03:19:16;;;;;;;9.37;6.90;;;;;;;4.96;89.39;100287.70;1600636;88;25439;-77
2021/05/08 03:21:43;;;;;;;13.40;8.40;;;;;;;4.97;89.49;100297.61;1612734;86;25454;-76
2021/05/08 03:24:09;;;;;;;10.80;7.40;;;;;;;4.96;89.59;100294.66;1614787;86;25847;-76
2021/05/08 03:26:36;;;;;;;12.10;7.03;;;;;;;4.95;89.58;100300.31;1644598;86;26136;-76
2021/05/08 03:29:03;;;;;;;11.70;6.83;;;;;;;4.95;89.78;100305.98;1646611;86;25403;-77
2021/05/08 03:31:29;;;;;;;9.23;6.83;;;;;;;4.93;89.91;100304.80;1645907;86;25722;-77
2021/05/08 03:33:55;;;;;;;9.90;6.45;;;;;;;4.91;89.52;100314.49;1637006;86;26043;-76
2021/05/08 03:36:21;;;;;;;10.00;6.80;;;;;;;4.91;89.77;100310.61;1647909;86;25404;-77
2021/05/08 03:38:47;;;;;;;10.90;7.03;;;;;;;4.89;89.89;100312.02;1649536;86;25423;-77
2021/05/08 03:41:13;;;;;;;8.23;6.37;;;;;;;4.88;89.84;100321.20;1648060;86;25966;-76
2021/05/08 03:43:39;;;;;;;11.13;7.03;;;;;;;4.85;89.84;100327.94;1608613;88;25431;-77
2021/05/08 03:46:05;;;;;;;9.25;6.62;;;;;;;4.84;89.60;100321.13;1645010;86;25328;-77
2021/05/08 03:48:31;;;;;;;7.80;6.65;;;;;;;4.83;89.47;100329.85;1647166;86;25710;-76
2021/05/08 03:50:57;;;;;;;9.05;6.42;;;;;;;4.80;89.39;100327.49;1647261;86;25822;-76
2021/05/08 03:53:24;;;;;;;9.23;6.83;;;;;;;4.77;89.22;100332.45;1647472;86;25747;-76
2021/05/08 03:55:51;;;;;;;7.33;5.60;;;;;;;4.76;88.97;100336.00;1647049;86;25655;-76
2021/05/08 03:58:27;;;;;;;9.33;6.00;;;;;;;4.71;89.14;100341.22;1647980;86;25711;-76
2021/05/08 04:00:49;;;;;;;7.62;5.97;;;;;;;4.65;88.95;100343.37;1643933;86;25929;-76
2021/05/08 04:03:15;;;;;;;7.37;5.70;;;;;;;4.63;88.83;100342.66;1648601;86;25707;-76
2021/05/08 04:05:41;;;;;;;7.53;5.70;;;;;;;4.66;88.74;100346.77;1644178;86;25873;-77
2021/05/08 04:08:07;;;;;;;7.17;6.00;;;;;;;4.67;88.78;100348.43;1648352;86;25452;-77
2021/05/08 04:10:33;;;;;;;8.40;6.07;;;;;;;4.66;88.59;100355.37;1647187;86;25763;-77
2021/05/08 04:12:59;;;;;;;9.63;6.33;;;;;;;4.68;88.59;100361.23;1648022;86;27193;-77
2021/05/08 04:15:25;;;;;;;8.40;5.90;;;;;;;4.67;88.65;100354.90;1634942;86;25789;-77
2021/05/08 04:17:51;;;;;;;10.73;7.17;;;;;;;4.67;88.59;100362.19;1645988;86;25956;-77
2021/05/08 04:20:17;;;;;;;8.60;6.57;;;;;;;4.68;88.54;100367.70;1646056;86;26573;-77
2021/05/08 04:22:42;;;;;;;8.13;6.07;;;;;;;4.68;88.54;100368.18;1649017;86;25382;-77
2021/05/08 04:25:09;;;;;;;8.27;6.87;;;;;;;4.68;88.48;100365.59;1645633;86;25414;-76
2021/05/08 04:27:35;;;;;;;8.35;6.28;;;;;;;4.68;88.48;100371.58;1644166;86;25397;-77
2021/05/08 04:30:01;;;;;;;9.07;6.27;;;;;;;4.73;88.67;100369.10;1648834;86;25515;-75
2021/05/08 04:32:26;;;;;;;8.33;6.70;;;;;;;4.78;88.65;100375.55;1646712;86;25401;-77
2021/05/08 04:34:52;;;;;;;9.30;6.37;;;;;;;4.78;88.54;100371.66;1645805;86;25780;-76
2021/05/08 04:37:18;;;;;;;7.13;5.67;;;;;;;4.78;88.47;100380.72;1645711;86;34950;-77
2021/05/08 04:39:44;;;;;;;11.80;7.90;;;;;;;4.82;88.67;100387.75;1644204;86;25855;-77
2021/05/08 04:42:11;;;;;;;9.10;6.73;;;;;;;4.81;88.54;100381.75;1645685;86;26070;-77
2021/05/08 04:44:37;;;;;;;10.32;8.80;;;;;;;4.83;88.70;100388.12;1646951;86;25740;-77
2021/05/08 04:47:04;;;;;;;9.73;7.20;;;;;;;4.85;88.64;100391.38;1647298;86;25896;-77
2021/05/08 04:49:30;;;;;;;9.98;6.40;;;;;;;4.88;88.90;100401.48;1645240;86;25554;-77
2021/05/08 04:51:56;;;;;;;6.97;5.83;;;;;;;4.85;89.24;100394.78;1648086;86;25358;-76
2021/05/08 04:54:22;;;;;;;8.17;6.53;;;;;;;4.85;89.13;100407.73;1648719;86;25862;-77
2021/05/08 04:56:48;;;;;;;9.95;7.40;;;;;;;4.88;89.05;100400.18;1646584;86;26505;-77
2021/05/08 04:59:14;;;;;;;9.80;7.67;;;;;;;4.89;89.14;100414.79;1647478;86;25801;-77
2021/05/08 05:01:40;;;;;;;9.53;8.10;;;;;;;4.88;89.01;100402.32;1646176;86;27365;-77
2021/05/08 05:04:06;;;;;;;9.97;7.70;;;;;;;4.88;89.16;100406.66;1647631;86;25901;-77
2021/05/08 05:06:32;;;;;;;10.13;8.00;;;;;;;4.87;89.01;100405.02;1646649;86;25853;-76
2021/05/08 05:08:58;;;;;;;10.53;8.30;;;;;;;4.90;89.02;100408.66;1644228;86;25957;-77
2021/05/08 05:11:24;;;;;;;8.60;6.67;;;;;;;4.93;89.01;100410.98;1647539;86;25766;-77
2021/05/08 05:13:50;;;;;;;12.97;8.03;;;;;;;4.97;89.01;100416.27;1647592;86;25796;-77
2021/05/08 05:16:16;;;;;;;10.38;8.45;;;;;;;4.98;88.76;100418.38;1646585;86;25802;-76
2021/05/08 05:18:42;;;;;;;10.37;6.90;;;;;;;4.99;88.81;100420.01;1645345;86;25870;-76
2021/05/08 05:21:09;;;;;;;9.68;7.10;;;;;;;5.04;88.64;100428.23;1646732;86;26402;-77
2021/05/08 05:23:35;;;;;;;11.03;6.90;;;;;;;5.06;88.47;100431.52;1647370;86;25357;-77
2021/05/08 05:26:01;;;;;;;8.98;6.62;;;;;;;5.08;88.38;100429.14;1648680;86;25496;-76
2021/05/08 05:28:29;;;;;;;9.93;7.27;;;;;;;5.08;88.28;100434.33;1645858;86;25888;-77
2021/05/08 05:30:57;;;;;;;12.68;7.72;;;;;;;5.14;88.45;100429.59;1644500;86;25448;-77
2021/05/08 05:33:24;;;;;;;7.72;5.90;;;;;;;5.15;88.21;100430.73;1637004;86;25833;-77
2021/05/08 05:35:55;;;;;;;8.35;6.72;;;;;;;5.18;88.10;100437.44;1644480;86;25435;-77
2021/05/08 05:38:25;;;;;;;8.93;6.50;;;;;;;5.19;87.98;100444.28;1638271;86;25345;-77
2021/05/08 05:40:54;;;;;;;10.05;5.80;;;;;;;5.21;87.86;100436.72;1644468;86;32556;-77
2021/05/08 05:43:21;;;;;;;8.90;6.30;;;;;;;5.26;87.63;100452.68;1645648;86;25346;-75
2021/05/08 05:45:48;;;;;;;8.88;6.30;;;;;;;5.27;87.61;100449.16;1645834;86;25794;-75
2021/05/08 05:48:14;;;;;;;8.85;6.37;;;;;;;5.31;87.52;100453.60;1648370;86;26477;-76
2021/05/08 05:50:45;;;;;;;7.90;5.90;;;;;;;5.34;87.34;100452.05;1647857;86;25333;-77
2021/05/08 05:53:11;;;;;;;7.30;5.92;;;;;;;5.36;87.42;100456.63;1645550;86;25760;-76
2021/05/08 05:55:37;;;;;;;8.30;5.97;;;;;;;5.39;87.31;100455.08;1645416;86;25393;-75
2021/05/08 05:58:03;;;;;;;11.30;6.40;;;;;;;5.43;87.40;100452.59;1636751;86;25805;-75
2021/05/08 06:00:29;;;;;;;11.10;6.40;;;;;;;5.48;87.40;100451.73;1601366;88;25820;-77
2021/05/08 06:02:55;;;;;;;7.67;5.90;;;;;;;5.58;87.24;100461.30;1633033;86;25912;-76
2021/05/08 06:05:20;;;;;;;11.03;6.53;;;;;;;5.65;86.89;100464.55;1607782;88;25640;-77
2021/05/08 06:07:46;;;;;;;11.03;7.33;;;;;;;5.77;87.26;100462.67;1642724;86;25888;-77
2021/05/08 06:10:14;;;;;;;9.90;6.43;;;;;;;5.89;87.02;100472.01;1642954;86;25396;-76
2021/05/08 06:12:40;;;;;;;8.38;6.22;;;;;;;5.96;86.37;100468.43;1635434;86;25320;-76
2021/05/08 06:15:10;;;;;;;10.28;5.87;;;;;;;6.00;85.93;100469.34;1645305;86;25356;-77
2021/05/08 06:17:37;;;;;;;10.15;5.62;;;;;;;6.01;85.61;100471.45;1634466;86;25754;-75
2021/05/08 06:20:05;;;;;;;11.43;6.53;;;;;;;5.98;85.15;100473.02;1635992;86;25557;-75
2021/05/08 06:22:32;;;;;;;7.90;5.87;;;;;;;5.97;85.54;100478.69;1643750;86;25744;-74
2021/05/08 06:24:58;;;;;;;9.13;6.20;;;;;;;5.98;85.39;100482.09;1645382;86;25688;-77
2021/05/08 06:27:25;;;;;;;10.90;6.97;;;;;;;5.96;85.43;100484.00;1646689;86;25719;-77
2021/05/08 06:29:51;;;;;;;8.68;6.80;;;;;;;5.97;85.67;100485.17;1647056;86;25945;-77
2021/05/08 06:32:17;;;;;;;9.83;6.80;;;;;;;6.00;85.47;100493.14;1642724;86;25676;-75
2021/05/08 06:34:43;;;;;;;9.98;6.97;;;;;;;5.97;85.48;100489.06;1647348;86;25899;-75
2021/05/08 06:37:09;;;;;;;10.37;7.17;;;;;;;5.97;85.42;100486.92;1642992;86;25867;-74
2021/05/08 06:39:35;;;;;;;9.63;7.33;;;;;;;5.97;85.57;100488.22;1643261;86;25349;-75
2021/05/08 06:42:00;;;;;;;12.33;6.90;;;;;;;5.99;85.50;100492.81;1644345;86;27203;-77
2021/05/08 06:44:27;;;;;;;8.57;6.50;;;;;;;6.01;85.45;100496.09;1647176;86;26526;-78
2021/05/08 06:46:54;;;;;;;8.98;6.60;;;;;;;6.05;85.53;100492.75;1645149;86;26673;-78
2021/05/08 06:49:20;;;;;;;7.83;6.10;;;;;;;6.11;85.55;100491.77;1645501;86;25773;-78
2021/05/08 06:51:46;;;;;;;8.07;6.23;;;;;;;6.19;85.53;100494.52;1643292;86;25813;-78
2021/05/08 06:54:12;;;;;;;7.27;5.90;;;;;;;6.33;85.59;100494.61;1647539;86;26736;-77
2021/05/08 06:56:38;;;;;;;8.98;5.65;;;;;;;6.48;85.56;100491.61;1636038;86;25814;-78
2021/05/08 06:59:04;;;;;;;10.30;7.50;;;;;;;6.59;85.12;100498.79;1636944;86;25720;-78
2021/05/08 07:01:30;;;;;;;8.50;6.80;;;;;;;6.65;85.28;100498.23;1645540;86;25943;-77
2021/05/08 07:03:56;;;;;;;13.23;7.57;;;;;;;6.74;85.20;100499.67;1646437;86;25850;-77
2021/05/08 07:06:26;;;;;;;11.22;7.28;;;;;;;6.72;84.94;100501.61;1647817;86;25622;-78
2021/05/08 07:08:52;;;;;;;13.07;9.43;;;;;;;6.73;84.94;100507.14;1642032;86;25773;-78
2021/05/08 07:11:19;;;;;;;11.78;7.30;;;;;;;6.75;84.76;100505.23;1642561;86;25641;-78
2021/05/08 07:13:45;;;;;;;9.65;7.33;;;;;;;6.73;84.25;100514.45;1644035;86;25739;-79
2021/05/08 07:16:12;;;;;;;16.07;7.33;;;;;;;6.70;84.08;100512.61;1644241;86;25433;-78
2021/05/08 07:18:37;;;;;;;9.33;6.25;;;;;;;6.73;84.24;100517.53;1644001;86;25344;-78
2021/05/08 07:21:04;;;;;;;11.00;7.23;;;;;;;6.82;83.83;100519.30;1645311;86;25401;-78
2021/05/08 07:23:30;;;;;;;12.23;6.17;;;;;;;6.98;83.93;100516.97;1599736;88;25874;-76
2021/05/08 07:25:56;;;;;;;12.03;6.03;;;;;;;7.15;83.37;100523.73;1634125;86;25569;-79
2021/05/08 07:28:24;;;;;;;8.67;5.70;;;;;;;7.20;82.16;100516.34;1648091;86;25861;-77
2021/05/08 07:30:54;;;;;;;11.85;7.75;;;;;;;7.25;81.71;100519.34;1646931;86;25750;-77
2021/05/08 07:33:21;;;;;;;9.78;6.83;;;;;;;7.23;81.57;100526.00;1644889;86;25406;-78
2021/05/08 07:35:48;;;;;;;9.08;6.40;;;;;;;7.29;82.26;100513.73;1624093;86;26108;-79
2021/05/08 07:38:15;;;;;;;10.18;6.97;;;;;;;7.34;81.71;100524.53;1646663;86;25941;-79
2021/05/08 07:40:41;;;;;;;9.48;6.50;;;;;;;7.42;81.54;100521.70;1635786;86;25423;-79
2021/05/08 07:43:09;;;;;;;8.35;5.55;;;;;;;7.49;81.42;100523.60;1636651;86;25448;-78
2021/05/08 07:45:37;;;;;;;10.45;6.67;;;;;;;7.61;81.47;100524.27;1606549;88;25722;-79
2021/05/08 07:48:04;;;;;;;8.18;4.70;;;;;;;7.69;81.26;100526.98;1648315;86;25757;-78
2021/05/08 07:50:31;;;;;;;6.78;4.87;;;;;;;7.78;79.83;100531.33;1647367;86;25408;-79
2021/05/08 07:52:57;;;;;;;8.78;5.20;;;;;;;7.85;80.16;100539.85;1645426;86;25651;-79
2021/05/08 07:55:24;;;;;;;9.35;5.83;;;;;;;7.86;78.59;100533.22;1640989;86;25338;-79
2021/05/08 07:57:50;;;;;;;8.68;4.83;;;;;;;7.84;78.69;100546.03;1648897;86;25388;-79
2021/05/08 08:00:19;;;;;;;8.20;4.53;;;;;;;7.77;77.37;100536.20;1648977;86;25912;-79
2021/05/08 08:02:45;;;;;;;8.25;4.37;;;;;;;7.79;77.23;100550.34;1647296;86;26418;-77
2021/05/08 08:05:11;;;;;;;8.00;4.70;;;;;;;7.89;77.07;100542.52;1639443;86;25811;-78
2021/05/08 08:07:38;;;;;;;5.37;4.00;;;;;;;7.98;76.79;100553.36;1643417;86;25378;-77
2021/05/08 08:10:06;;;;;;;11.35;5.47;;;;;;;8.00;76.58;100548.36;1635872;86;25738;-77
2021/05/08 08:12:33;;;;;;;9.98;5.65;;;;;;;7.99;76.79;100549.33;1632906;86;25767;-76
2021/05/08 08:15:00;;;;;;;9.38;5.80;;;;;;;7.91;76.86;100553.13;1598783;88;26540;-76
2021/05/08 08:17:28;;;;;;;8.93;4.65;;;;;;;7.80;77.12;100553.28;1635411;86;26670;-76
2021/05/08 08:19:53;;;;;;;8.30;4.80;;;;;;;7.82;76.72;100554.45;1607190;87;25766;-78
2021/05/08 08:22:19;;;;;;;9.27;5.63;;;;;;;7.88;76.30;100553.39;1643734;86;27921;-77
2021/05/08 08:24:45;;;;;;;7.80;4.97;;;;;;;7.85;76.09;100551.56;1644648;86;25921;-77
2021/05/08 08:27:11;;;;;;;9.80;5.23;;;;;;;7.88;76.59;100557.78;1646454;86;25552;-76
2021/05/08 08:29:38;;;;;;;9.70;5.70;;;;;;;7.84;76.29;100548.63;1647570;86;25362;-77
2021/05/08 08:32:06;;;;;;;8.85;4.87;;;;;;;7.92;77.02;100554.76;1645680;86;25703;-77
2021/05/08 08:34:32;;;;;;;8.20;4.67;;;;;;;8.12;77.15;100557.28;1646507;86;25422;-77
2021/05/08 08:36:58;;;;;;;11.30;4.85;;;;;;;8.21;74.56;100552.03;1647992;86;25735;-77
2021/05/08 08:39:24;;;;;;;12.00;4.80;;;;;;;8.24;74.49;100553.53;1639460;86;25896;-77
2021/05/08 08:41:52;;;;;;;7.70;4.55;;;;;;;8.24;74.35;100554.84;1643405;86;25921;-78
2021/05/08 08:44:18;;;;;;;6.42;4.47;;;;;;;8.30;73.46;100549.53;1647005;86;25778;-77
2021/05/08 08:46:46;;;;;;;6.27;4.20;;;;;;;8.41;73.58;100567.59;1643258;86;26803;-77
2021/05/08 08:49:14;;;;;;;6.67;4.22;;;;;;;8.51;74.00;100555.79;1643807;86;26005;-77
2021/05/08 08:51:42;;;;;;;7.37;4.08;;;;;;;8.65;73.04;100560.52;1644226;86;25748;-77
2021/05/08 08:54:09;;;;;;;11.03;4.85;;;;;;;8.66;72.39;100562.15;1644747;86;25833;-77
2021/05/08 08:56:42;;;;;;;7.92;5.33;;;;;;;8.73;73.87;100559.30;1635264;86;25823;-78
2021/05/08 09:01:42;;;;;;;8.18;5.12;;;;;;;8.82;73.32;100568.01;1644893;86;25844;-77
2021/05/08 09:04:12;;;;;;;9.40;4.08;;;;;;;8.93;71.59;100564.36;1636555;86;25742;-79
2021/05/08 09:06:40;;;;;;;5.58;4.25;;;;;;;9.00;72.19;100559.72;1613310;88;32487;-78
2021/05/08 09:09:08;;;;;;;8.78;3.62;;;;;;;9.10;70.76;100563.52;1641484;86;25964;-77
2021/05/08 09:11:48;;;;;;;9.45;4.25;;;;;;;9.28;69.79;100563.03;1646133;86;26008;-77
2021/05/08 09:14:27;;;;;;;6.17;4.50;;;;;;;9.38;70.80;100562.11;1599168;88;25814;-75
2021/05/08 09:17:13;;;;;;;8.80;4.70;;;;;;;9.42;70.52;100551.72;1634454;86;25382;-77
2021/05/08 09:19:46;;;;;;;5.65;2.95;;;;;;;9.52;69.15;100558.48;1611882;88;26015;-77
2021/05/08 09:22:31;;;;;;;4.45;2.80;;;;;;;9.58;66.01;100566.66;1645822;86;25746;-77
2021/05/08 09:25:17;;;;;;;6.95;3.60;;;;;;;9.60;66.44;100555.56;1638084;86;25407;-77
2021/05/08 09:27:50;;;;;;;6.40;3.15;;;;;;;9.65;67.56;100553.31;1648629;86;25898;-77
2021/05/08 09:30:26;;;;;;;6.40;3.05;;;;;;;9.76;67.26;100565.61;1650892;86;25772;-77
2021/05/08 09:33:00;;;;;;;7.55;3.80;;;;;;;9.75;66.66;100556.16;1645575;86;25378;-77
2021/05/08 09:35:30;;;;;;;8.23;3.55;;;;;;;9.86;67.53;100557.69;1646842;86;25367;-77
2021/05/08 09:38:15;;;;;;;7.20;3.52;;;;;;;9.88;66.07;100559.66;1644906;86;25371;-77
2021/05/08 09:40:45;;;;;;;4.90;2.67;;;;;;;9.71;65.61;100563.13;1645391;86;25855;-77
2021/05/08 09:43:17;;;;;;;8.53;1.80;;;;;;;9.52;65.83;100580.66;1647293;86;25860;-77
2021/05/08 09:45:47;;;;;;;4.92;2.10;;;;;;;9.26;63.32;100573.28;1645099;86;25402;-77
2021/05/08 09:48:32;;;;;;;3.83;1.80;;;;;;;9.11;65.44;100568.61;1646656;86;25757;-77
2021/05/08 09:51:27;;;;;;;3.40;1.92;;;;;;;9.09;63.17;100565.32;1650534;86;25732;-78
2021/05/08 09:54:02;;;;;;;5.95;2.60;;;;;;;9.29;64.33;100567.27;1651059;86;25867;-77
2021/05/08 09:56:42;;;;;;;9.63;2.90;;;;;;;9.32;63.39;100576.09;1641425;86;26436;-78
2021/05/08 09:59:35;;;;;;;3.55;2.30;;;;;;;9.19;64.06;100567.02;1649715;86;25374;-78
2021/05/08 10:02:08;;;;;;;6.30;3.00;;;;;;;9.04;64.16;100568.05;1650240;86;25699;-78
2021/05/08 10:04:46;;;;;;;4.55;2.47;;;;;;;9.17;64.55;100558.55;1648385;86;25945;-79
2021/05/08 10:07:25;;;;;;;5.17;2.17;;;;;;;9.33;63.80;100571.71;1648202;86;25721;-78
2021/05/08 10:09:58;;;;;;;5.90;2.50;;;;;;;9.47;62.45;100562.02;1648675;86;25791;-78
2021/05/08 10:12:27;;;;;;;6.10;2.67;;;;;;;9.47;62.89;100572.46;1641718;86;26567;-75
2021/05/08 10:14:55;;;;;;;9.60;3.52;;;;;;;9.47;63.94;100559.91;1633981;86;25824;-74
2021/05/08 10:17:24;;;;;;;5.90;3.02;;;;;;;9.42;63.93;100560.36;1646006;86;25749;-74
2021/05/08 10:19:53;;;;;;;7.95;2.77;;;;;;;9.34;64.20;100570.73;1643148;86;25802;-73
2021/05/08 10:22:19;;;;;;;6.83;3.30;;;;;;;9.29;64.11;100567.75;1643010;86;25827;-74
2021/05/08 10:24:47;;;;;;;8.05;3.00;;;;;;;9.34;63.53;100570.73;1644979;86;25780;-74
2021/05/08 10:27:15;;;;;;;5.53;2.90;;;;;;;9.42;62.90;100570.79;1644001;86;25795;-74
2021/05/08 10:29:45;;;;;;;8.70;3.20;;;;;;;9.48;63.23;100559.73;1647681;86;25682;-73
2021/05/08 10:32:15;;;;;;;7.37;3.27;;;;;;;9.52;63.55;100566.30;1643371;86;25737;-75
2021/05/08 10:34:59;;;;;;;8.10;3.50;;;;;;;9.51;62.87;100567.75;1646392;86;25813;-76
2021/05/08 10:37:27;;;;;;;6.83;2.95;;;;;;;9.49;63.13;100573.59;1649895;86;25909;-75
2021/05/08 10:40:01;;;;;;;5.60;3.22;;;;;;;9.60;63.52;100577.75;1640185;86;25868;-74
2021/05/08 10:42:42;;;;;;;5.10;2.52;;;;;;;9.72;63.78;100556.96;1642550;86;25748;-75
2021/05/08 10:45:25;;;;;;;5.97;2.60;;;;;;;9.80;63.21;100565.33;1607422;87;25812;-73
2021/05/08 10:48:06;;;;;;;5.17;2.60;;;;;;;9.75;62.58;100582.25;1633171;86;26570;-72
2021/05/08 10:50:42;;;;;;;10.08;2.85;;;;;;;9.65;60.93;100574.20;1635483;86;25816;-75
2021/05/08 10:53:12;;;;;;;7.83;3.17;;;;;;;9.69;61.77;100574.23;1645747;86;25706;-74
2021/05/08 10:55:55;;;;;;;7.65;3.22;;;;;;;9.90;61.34;100585.13;1647457;86;26012;-72
2021/05/08 10:58:26;;;;;;;5.25;2.70;;;;;;;10.06;60.02;100571.31;1642937;86;26027;-74
2021/05/08 11:01:01;;;;;;;6.65;2.10;;;;;;;10.16;59.86;100578.55;1642259;86;25776;-73
2021/05/08 11:03:50;;;;;;;6.28;2.65;;;;;;;10.23;57.43;100570.92;1645084;86;25341;-72
2021/05/08 11:06:17;;;;;;;7.97;2.58;;;;;;;10.29;59.00;100571.63;1617534;86;25782;-71
2021/05/08 11:08:50;;;;;;;6.40;3.08;;;;;;;10.44;58.21;100568.71;1643908;86;25685;-72
2021/05/08 11:11:28;;;;;;;8.25;2.83;;;;;;;10.52;59.76;100573.64;1643975;86;25825;-73
2021/05/08 11:13:55;;;;;;;6.75;2.72;;;;;;;10.56;60.34;100581.02;1645311;86;25841;-74
2021/05/08 11:16:32;;;;;;;5.72;2.90;;;;;;;10.57;60.01;100581.83;1646353;86;25859;-74
2021/05/08 11:19:00;;;;;;;5.78;2.33;;;;;;;10.54;59.72;100579.05;1646776;86;25946;-72
2021/05/08 11:21:31;;;;;;;4.40;2.52;;;;;;;10.62;59.84;100571.72;1645352;86;26540;-74
2021/05/08 11:24:08;;;;;;;7.78;3.08;;;;;;;10.77;59.08;100568.78;1645676;86;25757;-73
2021/05/08 11:26:37;;;;;;;4.25;2.47;;;;;;;10.75;57.92;100578.61;1645387;86;26431;-72
2021/05/08 11:29:21;;;;;;;5.45;2.20;;;;;;;10.76;58.60;100579.42;1647119;86;25351;-72
2021/05/08 11:31:51;;;;;;;5.85;2.70;;;;;;;10.84;57.47;100579.44;1646712;86;25796;-73
2021/05/08 11:34:29;;;;;;;6.33;2.27;;;;;;;10.98;58.41;100585.83;1642364;86;25505;-73
2021/05/08 11:37:02;;;;;;;4.17;1.87;;;;;;;11.00;55.95;100587.30;1643946;86;55084;-73